sensor_id;sensor_type;location;lat;lon;timestamp;pressure;altitude;pressure_sealevel;temperature
68939;BMP180;59064;45.294;11.816;2023-04-30T00:01:37;101330.40;;;12.90
68939;BMP180;59064;45.294;11.816;2023-04-30T00:04:03;101324.40;;;12.88
68939;BMP180;59064;45.294;11.816;2023-04-30T00:06:28;101320.80;;;12.82
68939;BMP180;59064;45.294;11.816;2023-04-30T00:08:55;101319.60;;;12.80
68939;BMP180;59064;45.294;11.816;2023-04-30T00:11:20;101322.40;;;12.80
68939;BMP180;59064;45.294;11.816;2023-04-30T00:13:46;101330.40;;;12.82
68939;BMP180;59064;45.294;11.816;2023-04-30T00:16:12;101327.40;;;12.90
68939;BMP180;59064;45.294;11.816;2023-04-30T00:18:37;101329.20;;;12.90
68939;BMP180;59064;45.294;11.816;2023-04-30T00:21:03;101325.20;;;12.90
68939;BMP180;59064;45.294;11.816;2023-04-30T00:23:29;101320.60;;;12.90
68939;BMP180;59064;45.294;11.816;2023-04-30T00:25:54;101318.20;;;12.96
68939;BMP180;59064;45.294;11.816;2023-04-30T00:28:20;101317.80;;;13.00
68939;BMP180;59064;45.294;11.816;2023-04-30T00:30:46;101319.80;;;13.00
68939;BMP180;59064;45.294;11.816;2023-04-30T00:33:11;101318.60;;;13.00
68939;BMP180;59064;45.294;11.816;2023-04-30T00:35:37;101316.40;;;13.00
68939;BMP180;59064;45.294;11.816;2023-04-30T00:38:02;101318.60;;;13.00
68939;BMP180;59064;45.294;11.816;2023-04-30T00:40:28;101315.40;;;13.00
68939;BMP180;59064;45.294;11.816;2023-04-30T00:42:54;101312.20;;;13.00
68939;BMP180;59064;45.294;11.816;2023-04-30T00:45:21;101315.00;;;13.08
68939;BMP180;59064;45.294;11.816;2023-04-30T00:47:47;101312.80;;;13.10
68939;BMP180;59064;45.294;11.816;2023-04-30T00:50:14;101310.20;;;13.10
68939;BMP180;59064;45.294;11.816;2023-04-30T00:52:43;101308.80;;;13.10
68939;BMP180;59064;45.294;11.816;2023-04-30T00:55:11;101307.20;;;13.10
68939;BMP180;59064;45.294;11.816;2023-04-30T00:57:38;101303.40;;;13.10
68939;BMP180;59064;45.294;11.816;2023-04-30T01:00:04;101304.20;;;13.10
68939;BMP180;59064;45.294;11.816;2023-04-30T01:02:30;101298.00;;;13.10
68939;BMP180;59064;45.294;11.816;2023-04-30T01:04:56;101300.00;;;13.10
68939;BMP180;59064;45.294;11.816;2023-04-30T01:07:23;101300.60;;;13.08
68939;BMP180;59064;45.294;11.816;2023-04-30T01:09:51;101297.40;;;13.08
68939;BMP180;59064;45.294;11.816;2023-04-30T01:12:19;101294.40;;;13.08
68939;BMP180;59064;45.294;11.816;2023-04-30T01:14:54;101290.40;;;13.10
68939;BMP180;59064;45.294;11.816;2023-04-30T01:17:22;101289.40;;;13.10
68939;BMP180;59064;45.294;11.816;2023-04-30T01:19:51;101294.60;;;13.10
68939;BMP180;59064;45.294;11.816;2023-04-30T01:28:05;101293.60;;;13.10
68939;BMP180;59064;45.294;11.816;2023-04-30T01:30:32;101289.60;;;13.10
68939;BMP180;59064;45.294;11.816;2023-04-30T01:32:58;101288.40;;;13.08
68939;BMP180;59064;45.294;11.816;2023-04-30T01:46:39;101292.80;;;13.10
68939;BMP180;59064;45.294;11.816;2023-04-30T01:52:08;101291.40;;;13.10
68939;BMP180;59064;45.294;11.816;2023-04-30T01:57:06;101287.60;;;13.10
68939;BMP180;59064;45.294;11.816;2023-04-30T01:59:34;101289.00;;;13.10
68939;BMP180;59064;45.294;11.816;2023-04-30T02:02:00;101284.60;;;13.10
68939;BMP180;59064;45.294;11.816;2023-04-30T02:04:26;101279.00;;;13.10
68939;BMP180;59064;45.294;11.816;2023-04-30T02:06:51;101280.40;;;13.10
68939;BMP180;59064;45.294;11.816;2023-04-30T02:09:17;101281.60;;;13.02
68939;BMP180;59064;45.294;11.816;2023-04-30T02:11:42;101286.60;;;13.00
68939;BMP180;59064;45.294;11.816;2023-04-30T02:14:08;101287.80;;;13.00
68939;BMP180;59064;45.294;11.816;2023-04-30T02:16:34;101281.40;;;13.00
68939;BMP180;59064;45.294;11.816;2023-04-30T02:19:01;101281.00;;;12.90
68939;BMP180;59064;45.294;11.816;2023-04-30T02:21:26;101279.80;;;12.90
68939;BMP180;59064;45.294;11.816;2023-04-30T02:23:52;101281.60;;;12.90
68939;BMP180;59064;45.294;11.816;2023-04-30T02:26:18;101279.40;;;12.90
68939;BMP180;59064;45.294;11.816;2023-04-30T02:28:45;101277.80;;;12.86
68939;BMP180;59064;45.294;11.816;2023-04-30T02:31:10;101276.00;;;12.80
68939;BMP180;59064;45.294;11.816;2023-04-30T02:33:36;101274.00;;;12.80
68939;BMP180;59064;45.294;11.816;2023-04-30T02:36:02;101275.00;;;12.80
68939;BMP180;59064;45.294;11.816;2023-04-30T02:38:28;101277.00;;;12.80
68939;BMP180;59064;45.294;11.816;2023-04-30T02:40:54;101279.40;;;12.80
68939;BMP180;59064;45.294;11.816;2023-04-30T02:43:19;101280.20;;;12.90
68939;BMP180;59064;45.294;11.816;2023-04-30T02:45:45;101287.00;;;12.90
68939;BMP180;59064;45.294;11.816;2023-04-30T02:48:10;101285.00;;;12.90
68939;BMP180;59064;45.294;11.816;2023-04-30T02:50:36;101284.80;;;12.90
68939;BMP180;59064;45.294;11.816;2023-04-30T02:53:01;101283.20;;;12.90
68939;BMP180;59064;45.294;11.816;2023-04-30T02:55:27;101284.40;;;12.90
68939;BMP180;59064;45.294;11.816;2023-04-30T02:57:52;101282.00;;;12.90
68939;BMP180;59064;45.294;11.816;2023-04-30T03:00:18;101277.20;;;12.92
68939;BMP180;59064;45.294;11.816;2023-04-30T03:02:44;101277.00;;;12.90
68939;BMP180;59064;45.294;11.816;2023-04-30T03:05:10;101275.60;;;12.90
68939;BMP180;59064;45.294;11.816;2023-04-30T03:07:36;101271.20;;;12.90
68939;BMP180;59064;45.294;11.816;2023-04-30T03:10:01;101269.60;;;12.90
68939;BMP180;59064;45.294;11.816;2023-04-30T03:12:27;101269.80;;;12.90
68939;BMP180;59064;45.294;11.816;2023-04-30T03:14:52;101268.80;;;12.84
68939;BMP180;59064;45.294;11.816;2023-04-30T03:17:18;101265.40;;;12.80
68939;BMP180;59064;45.294;11.816;2023-04-30T03:19:43;101269.00;;;12.80
68939;BMP180;59064;45.294;11.816;2023-04-30T03:22:10;101265.40;;;12.80
68939;BMP180;59064;45.294;11.816;2023-04-30T03:24:36;101270.80;;;12.80
68939;BMP180;59064;45.294;11.816;2023-04-30T03:27:02;101274.20;;;12.80
68939;BMP180;59064;45.294;11.816;2023-04-30T03:29:27;101272.60;;;12.80
68939;BMP180;59064;45.294;11.816;2023-04-30T03:31:53;101271.20;;;12.76
68939;BMP180;59064;45.294;11.816;2023-04-30T03:34:18;101268.00;;;12.70
68939;BMP180;59064;45.294;11.816;2023-04-30T03:36:44;101264.60;;;12.70
68939;BMP180;59064;45.294;11.816;2023-04-30T03:39:10;101261.60;;;12.70
68939;BMP180;59064;45.294;11.816;2023-04-30T03:41:35;101267.40;;;12.70
68939;BMP180;59064;45.294;11.816;2023-04-30T03:44:01;101268.00;;;12.70
68939;BMP180;59064;45.294;11.816;2023-04-30T03:46:27;101261.00;;;12.70
68939;BMP180;59064;45.294;11.816;2023-04-30T03:48:52;101265.00;;;12.70
68939;BMP180;59064;45.294;11.816;2023-04-30T03:51:19;101257.20;;;12.70
68939;BMP180;59064;45.294;11.816;2023-04-30T03:53:45;101260.20;;;12.70
68939;BMP180;59064;45.294;11.816;2023-04-30T03:56:11;101256.40;;;12.70
68939;BMP180;59064;45.294;11.816;2023-04-30T03:58:37;101259.80;;;12.62
68939;BMP180;59064;45.294;11.816;2023-04-30T04:01:03;101262.60;;;12.62
68939;BMP180;59064;45.294;11.816;2023-04-30T04:03:29;101264.00;;;12.60
68939;BMP180;59064;45.294;11.816;2023-04-30T04:05:54;101266.80;;;12.62
68939;BMP180;59064;45.294;11.816;2023-04-30T04:08:20;101265.80;;;12.70
68939;BMP180;59064;45.294;11.816;2023-04-30T04:10:46;101270.00;;;12.70
68939;BMP180;59064;45.294;11.816;2023-04-30T04:13:11;101272.20;;;12.74
68939;BMP180;59064;45.294;11.816;2023-04-30T04:15:37;101272.00;;;12.80
68939;BMP180;59064;45.294;11.816;2023-04-30T04:18:02;101269.60;;;12.80
68939;BMP180;59064;45.294;11.816;2023-04-30T04:20:28;101272.80;;;12.90
68939;BMP180;59064;45.294;11.816;2023-04-30T04:22:54;101270.60;;;12.90
68939;BMP180;59064;45.294;11.816;2023-04-30T04:25:20;101269.60;;;12.92
68939;BMP180;59064;45.294;11.816;2023-04-30T04:27:52;101272.00;;;13.00
68939;BMP180;59064;45.294;11.816;2023-04-30T04:30:18;101275.20;;;13.00
68939;BMP180;59064;45.294;11.816;2023-04-30T04:32:43;101279.80;;;13.10
68939;BMP180;59064;45.294;11.816;2023-04-30T04:35:15;101278.60;;;13.10
68939;BMP180;59064;45.294;11.816;2023-04-30T04:37:41;101279.20;;;13.10
68939;BMP180;59064;45.294;11.816;2023-04-30T04:40:07;101283.00;;;13.20
68939;BMP180;59064;45.294;11.816;2023-04-30T04:42:33;101280.40;;;13.20
68939;BMP180;59064;45.294;11.816;2023-04-30T04:44:59;101280.80;;;13.20
68939;BMP180;59064;45.294;11.816;2023-04-30T04:47:25;101275.60;;;13.20
68939;BMP180;59064;45.294;11.816;2023-04-30T04:49:51;101278.00;;;13.30
68939;BMP180;59064;45.294;11.816;2023-04-30T04:52:16;101279.00;;;13.30
68939;BMP180;59064;45.294;11.816;2023-04-30T04:54:42;101280.40;;;13.30
68939;BMP180;59064;45.294;11.816;2023-04-30T04:57:07;101280.20;;;13.34
68939;BMP180;59064;45.294;11.816;2023-04-30T04:59:33;101290.80;;;13.40
68939;BMP180;59064;45.294;11.816;2023-04-30T05:01:59;101293.20;;;13.40
68939;BMP180;59064;45.294;11.816;2023-04-30T05:04:24;101292.60;;;13.50
68939;BMP180;59064;45.294;11.816;2023-04-30T05:06:50;101301.00;;;13.50
68939;BMP180;59064;45.294;11.816;2023-04-30T05:09:15;101301.00;;;13.60
68939;BMP180;59064;45.294;11.816;2023-04-30T05:11:41;101303.80;;;13.60
68939;BMP180;59064;45.294;11.816;2023-04-30T05:14:08;101307.00;;;13.70
68939;BMP180;59064;45.294;11.816;2023-04-30T05:16:33;101308.80;;;13.74
68939;BMP180;59064;45.294;11.816;2023-04-30T05:18:58;101311.80;;;13.80
68939;BMP180;59064;45.294;11.816;2023-04-30T05:21:24;101319.40;;;13.80
68939;BMP180;59064;45.294;11.816;2023-04-30T05:23:53;101322.20;;;13.90
68939;BMP180;59064;45.294;11.816;2023-04-30T05:26:18;101321.80;;;13.90
68939;BMP180;59064;45.294;11.816;2023-04-30T05:28:44;101321.20;;;14.00
68939;BMP180;59064;45.294;11.816;2023-04-30T05:31:09;101321.20;;;14.00
68939;BMP180;59064;45.294;11.816;2023-04-30T05:33:35;101328.40;;;14.10
68939;BMP180;59064;45.294;11.816;2023-04-30T05:36:01;101327.40;;;14.10
68939;BMP180;59064;45.294;11.816;2023-04-30T05:38:27;101329.40;;;14.20
68939;BMP180;59064;45.294;11.816;2023-04-30T05:40:53;101330.40;;;14.22
68939;BMP180;59064;45.294;11.816;2023-04-30T05:43:18;101333.80;;;14.30
68939;BMP180;59064;45.294;11.816;2023-04-30T05:45:44;101329.80;;;14.40
68939;BMP180;59064;45.294;11.816;2023-04-30T05:48:09;101325.40;;;14.48
68939;BMP180;59064;45.294;11.816;2023-04-30T05:50:35;101327.60;;;14.50
68939;BMP180;59064;45.294;11.816;2023-04-30T05:53:00;101329.80;;;14.60
68939;BMP180;59064;45.294;11.816;2023-04-30T05:55:26;101329.60;;;14.64
68939;BMP180;59064;45.294;11.816;2023-04-30T05:57:51;101330.40;;;14.70
68939;BMP180;59064;45.294;11.816;2023-04-30T06:00:17;101327.60;;;14.80
68939;BMP180;59064;45.294;11.816;2023-04-30T06:02:43;101331.40;;;14.80
68939;BMP180;59064;45.294;11.816;2023-04-30T06:05:08;101332.60;;;14.90
68939;BMP180;59064;45.294;11.816;2023-04-30T06:07:34;101331.20;;;14.90
68939;BMP180;59064;45.294;11.816;2023-04-30T06:09:59;101329.60;;;15.00
68939;BMP180;59064;45.294;11.816;2023-04-30T06:12:25;101335.80;;;15.00
68939;BMP180;59064;45.294;11.816;2023-04-30T06:14:51;101330.40;;;15.10
68939;BMP180;59064;45.294;11.816;2023-04-30T06:17:17;101334.60;;;15.10
68939;BMP180;59064;45.294;11.816;2023-04-30T06:19:42;101335.00;;;15.20
68939;BMP180;59064;45.294;11.816;2023-04-30T06:22:08;101332.20;;;15.20
68939;BMP180;59064;45.294;11.816;2023-04-30T06:24:33;101340.00;;;15.30
68939;BMP180;59064;45.294;11.816;2023-04-30T06:26:59;101338.80;;;15.34
68939;BMP180;59064;45.294;11.816;2023-04-30T06:29:25;101338.80;;;15.40
68939;BMP180;59064;45.294;11.816;2023-04-30T06:31:50;101336.40;;;15.42
68939;BMP180;59064;45.294;11.816;2023-04-30T06:34:17;101339.60;;;15.50
68939;BMP180;59064;45.294;11.816;2023-04-30T06:36:42;101344.20;;;15.52
68939;BMP180;59064;45.294;11.816;2023-04-30T06:39:08;101343.00;;;15.50
68939;BMP180;59064;45.294;11.816;2023-04-30T06:41:34;101351.60;;;15.50
68939;BMP180;59064;45.294;11.816;2023-04-30T06:43:59;101353.40;;;15.60
68939;BMP180;59064;45.294;11.816;2023-04-30T06:46:25;101355.60;;;15.64
68939;BMP180;59064;45.294;11.816;2023-04-30T06:48:50;101353.00;;;15.70
68939;BMP180;59064;45.294;11.816;2023-04-30T06:51:16;101354.20;;;15.70
68939;BMP180;59064;45.294;11.816;2023-04-30T06:53:41;101359.60;;;15.70
68939;BMP180;59064;45.294;11.816;2023-04-30T06:56:07;101360.60;;;15.80
68939;BMP180;59064;45.294;11.816;2023-04-30T06:58:32;101358.60;;;15.80
68939;BMP180;59064;45.294;11.816;2023-04-30T07:00:59;101365.80;;;15.80
68939;BMP180;59064;45.294;11.816;2023-04-30T07:03:25;101365.40;;;15.80
68939;BMP180;59064;45.294;11.816;2023-04-30T07:05:51;101369.60;;;15.90
68939;BMP180;59064;45.294;11.816;2023-04-30T07:08:18;101371.40;;;15.90
68939;BMP180;59064;45.294;11.816;2023-04-30T07:10:43;101374.20;;;16.00
68939;BMP180;59064;45.294;11.816;2023-04-30T07:13:09;101374.60;;;16.00
68939;BMP180;59064;45.294;11.816;2023-04-30T07:15:34;101382.00;;;16.00
68939;BMP180;59064;45.294;11.816;2023-04-30T07:18:01;101379.80;;;16.10
68939;BMP180;59064;45.294;11.816;2023-04-30T07:20:28;101379.40;;;16.10
68939;BMP180;59064;45.294;11.816;2023-04-30T07:22:53;101379.80;;;16.10
68939;BMP180;59064;45.294;11.816;2023-04-30T07:25:19;101379.00;;;16.10
68939;BMP180;59064;45.294;11.816;2023-04-30T07:27:45;101375.40;;;16.08
68939;BMP180;59064;45.294;11.816;2023-04-30T07:30:11;101380.80;;;16.10
68939;BMP180;59064;45.294;11.816;2023-04-30T07:32:37;101378.80;;;16.10
68939;BMP180;59064;45.294;11.816;2023-04-30T07:35:05;101381.00;;;16.10
68939;BMP180;59064;45.294;11.816;2023-04-30T07:37:30;101384.00;;;16.02
68939;BMP180;59064;45.294;11.816;2023-04-30T07:39:56;101380.40;;;16.00
68939;BMP180;59064;45.294;11.816;2023-04-30T07:42:22;101386.40;;;16.00
68939;BMP180;59064;45.294;11.816;2023-04-30T07:44:48;101388.00;;;16.10
68939;BMP180;59064;45.294;11.816;2023-04-30T07:47:14;101386.60;;;16.20
68939;BMP180;59064;45.294;11.816;2023-04-30T07:49:39;101393.80;;;16.28
68939;BMP180;59064;45.294;11.816;2023-04-30T07:52:05;101392.20;;;16.36
68939;BMP180;59064;45.294;11.816;2023-04-30T07:54:32;101389.80;;;16.40
68939;BMP180;59064;45.294;11.816;2023-04-30T07:57:00;101393.80;;;16.54
68939;BMP180;59064;45.294;11.816;2023-04-30T07:59:27;101394.60;;;16.60
68939;BMP180;59064;45.294;11.816;2023-04-30T08:01:53;101392.60;;;16.70
68939;BMP180;59064;45.294;11.816;2023-04-30T08:04:18;101395.80;;;16.80
68939;BMP180;59064;45.294;11.816;2023-04-30T08:06:44;101395.20;;;17.00
68939;BMP180;59064;45.294;11.816;2023-04-30T08:09:10;101395.80;;;17.16
68939;BMP180;59064;45.294;11.816;2023-04-30T08:11:35;101395.80;;;17.30
68939;BMP180;59064;45.294;11.816;2023-04-30T08:14:01;101391.80;;;17.40
68939;BMP180;59064;45.294;11.816;2023-04-30T08:16:27;101396.00;;;17.52
68939;BMP180;59064;45.294;11.816;2023-04-30T08:18:53;101395.80;;;17.70
68939;BMP180;59064;45.294;11.816;2023-04-30T08:21:18;101394.00;;;17.80
68939;BMP180;59064;45.294;11.816;2023-04-30T08:23:44;101398.40;;;17.90
68939;BMP180;59064;45.294;11.816;2023-04-30T08:26:10;101395.60;;;18.00
68939;BMP180;59064;45.294;11.816;2023-04-30T08:28:35;101396.40;;;18.10
68939;BMP180;59064;45.294;11.816;2023-04-30T08:31:01;101398.00;;;18.20
68939;BMP180;59064;45.294;11.816;2023-04-30T08:33:26;101395.60;;;18.38
68939;BMP180;59064;45.294;11.816;2023-04-30T08:35:52;101391.80;;;18.40
68939;BMP180;59064;45.294;11.816;2023-04-30T08:38:18;101392.20;;;18.50
68939;BMP180;59064;45.294;11.816;2023-04-30T08:40:48;101402.20;;;18.60
68939;BMP180;59064;45.294;11.816;2023-04-30T08:43:17;101399.80;;;18.80
68939;BMP180;59064;45.294;11.816;2023-04-30T08:45:44;101398.40;;;19.00
68939;BMP180;59064;45.294;11.816;2023-04-30T08:48:10;101397.00;;;19.26
68939;BMP180;59064;45.294;11.816;2023-04-30T08:50:40;101398.20;;;19.40
68939;BMP180;59064;45.294;11.816;2023-04-30T08:53:07;101399.40;;;19.50
68939;BMP180;59064;45.294;11.816;2023-04-30T08:55:33;101402.40;;;19.64
68939;BMP180;59064;45.294;11.816;2023-04-30T08:57:59;101396.20;;;19.80
68939;BMP180;59064;45.294;11.816;2023-04-30T09:00:25;101401.00;;;19.90
68939;BMP180;59064;45.294;11.816;2023-04-30T09:02:52;101399.80;;;19.92
68939;BMP180;59064;45.294;11.816;2023-04-30T09:05:19;101398.00;;;19.98
68939;BMP180;59064;45.294;11.816;2023-04-30T09:07:45;101400.40;;;20.00
68939;BMP180;59064;45.294;11.816;2023-04-30T09:10:15;101396.40;;;20.00
68939;BMP180;59064;45.294;11.816;2023-04-30T09:12:42;101398.20;;;20.00
68939;BMP180;59064;45.294;11.816;2023-04-30T09:15:10;101400.40;;;20.10
68939;BMP180;59064;45.294;11.816;2023-04-30T09:17:37;101402.00;;;20.20
68939;BMP180;59064;45.294;11.816;2023-04-30T09:20:08;101401.00;;;20.20
68939;BMP180;59064;45.294;11.816;2023-04-30T09:22:35;101401.20;;;20.38
68939;BMP180;59064;45.294;11.816;2023-04-30T09:25:01;101393.20;;;20.40
68939;BMP180;59064;45.294;11.816;2023-04-30T09:27:27;101389.40;;;20.30
68939;BMP180;59064;45.294;11.816;2023-04-30T09:29:52;101391.60;;;20.30
68939;BMP180;59064;45.294;11.816;2023-04-30T09:32:18;101389.80;;;20.28
68939;BMP180;59064;45.294;11.816;2023-04-30T09:34:43;101388.00;;;20.20
68939;BMP180;59064;45.294;11.816;2023-04-30T09:37:09;101390.00;;;20.20
68939;BMP180;59064;45.294;11.816;2023-04-30T09:39:50;101393.60;;;20.30
68939;BMP180;59064;45.294;11.816;2023-04-30T09:42:17;101398.00;;;20.10
68939;BMP180;59064;45.294;11.816;2023-04-30T09:44:43;101398.00;;;20.12
68939;BMP180;59064;45.294;11.816;2023-04-30T09:47:17;101395.40;;;20.10
68939;BMP180;59064;45.294;11.816;2023-04-30T09:49:48;101396.60;;;20.00
68939;BMP180;59064;45.294;11.816;2023-04-30T09:52:17;101395.80;;;20.00
68939;BMP180;59064;45.294;11.816;2023-04-30T09:54:44;101401.40;;;20.10
68939;BMP180;59064;45.294;11.816;2023-04-30T09:57:12;101400.60;;;20.20
68939;BMP180;59064;45.294;11.816;2023-04-30T09:59:43;101397.40;;;20.30
68939;BMP180;59064;45.294;11.816;2023-04-30T10:02:09;101393.80;;;20.30
68939;BMP180;59064;45.294;11.816;2023-04-30T10:04:36;101393.20;;;20.30
68939;BMP180;59064;45.294;11.816;2023-04-30T10:07:15;101392.20;;;20.20
68939;BMP180;59064;45.294;11.816;2023-04-30T10:10:17;101390.60;;;20.28
68939;BMP180;59064;45.294;11.816;2023-04-30T10:12:52;101394.20;;;20.24
68939;BMP180;59064;45.294;11.816;2023-04-30T10:15:29;101392.60;;;20.22
68939;BMP180;59064;45.294;11.816;2023-04-30T10:18:07;101391.40;;;20.28
68939;BMP180;59064;45.294;11.816;2023-04-30T10:20:36;101387.60;;;20.30
68939;BMP180;59064;45.294;11.816;2023-04-30T10:23:03;101385.00;;;20.30
68939;BMP180;59064;45.294;11.816;2023-04-30T10:25:29;101388.20;;;20.40
68939;BMP180;59064;45.294;11.816;2023-04-30T10:27:55;101386.80;;;20.50
68939;BMP180;59064;45.294;11.816;2023-04-30T10:30:21;101379.20;;;20.58
68939;BMP180;59064;45.294;11.816;2023-04-30T10:35:55;101378.20;;;20.70
68939;BMP180;59064;45.294;11.816;2023-04-30T10:38:23;101374.00;;;20.70
68939;BMP180;59064;45.294;11.816;2023-04-30T10:40:53;101380.20;;;20.74
68939;BMP180;59064;45.294;11.816;2023-04-30T10:43:19;101377.40;;;20.80
68939;BMP180;59064;45.294;11.816;2023-04-30T10:45:46;101376.40;;;20.80
68939;BMP180;59064;45.294;11.816;2023-04-30T10:48:14;101373.40;;;20.88
68939;BMP180;59064;45.294;11.816;2023-04-30T10:50:42;101370.60;;;20.90
68939;BMP180;59064;45.294;11.816;2023-04-30T10:53:12;101365.40;;;21.00
68939;BMP180;59064;45.294;11.816;2023-04-30T10:55:53;101371.00;;;20.86
68939;BMP180;59064;45.294;11.816;2023-04-30T10:58:28;101368.80;;;21.00
68939;BMP180;59064;45.294;11.816;2023-04-30T11:01:14;101365.80;;;21.04
68939;BMP180;59064;45.294;11.816;2023-04-30T11:03:42;101364.80;;;21.10
68939;BMP180;59064;45.294;11.816;2023-04-30T11:06:13;101368.60;;;21.06
68939;BMP180;59064;45.294;11.816;2023-04-30T11:08:44;101364.40;;;21.00
68939;BMP180;59064;45.294;11.816;2023-04-30T11:11:19;101362.60;;;21.12
68939;BMP180;59064;45.294;11.816;2023-04-30T11:13:58;101352.20;;;21.24
68939;BMP180;59064;45.294;11.816;2023-04-30T11:16:33;101363.20;;;21.40
68939;BMP180;59064;45.294;11.816;2023-04-30T11:19:09;101352.40;;;21.50
68939;BMP180;59064;45.294;11.816;2023-04-30T11:21:39;101344.40;;;21.50
68939;BMP180;59064;45.294;11.816;2023-04-30T11:24:05;101358.20;;;21.50
68939;BMP180;59064;45.294;11.816;2023-04-30T11:27:06;101356.60;;;21.70
68939;BMP180;59064;45.294;11.816;2023-04-30T11:29:33;101354.80;;;22.08
68939;BMP180;59064;45.294;11.816;2023-04-30T11:31:59;101351.40;;;22.20
68939;BMP180;59064;45.294;11.816;2023-04-30T11:34:25;101348.20;;;22.26
68939;BMP180;59064;45.294;11.816;2023-04-30T11:36:54;101350.20;;;22.34
68939;BMP180;59064;45.294;11.816;2023-04-30T11:39:23;101351.00;;;22.20
68939;BMP180;59064;45.294;11.816;2023-04-30T11:41:50;101344.00;;;22.00
68939;BMP180;59064;45.294;11.816;2023-04-30T11:44:24;101355.60;;;22.00
68939;BMP180;59064;45.294;11.816;2023-04-30T11:46:50;101355.60;;;22.30
68939;BMP180;59064;45.294;11.816;2023-04-30T11:49:16;101346.80;;;22.40
68939;BMP180;59064;45.294;11.816;2023-04-30T11:51:42;101346.80;;;22.30
68939;BMP180;59064;45.294;11.816;2023-04-30T11:54:07;101350.60;;;22.40
68939;BMP180;59064;45.294;11.816;2023-04-30T11:56:36;101344.20;;;22.40
68939;BMP180;59064;45.294;11.816;2023-04-30T11:59:09;101349.80;;;22.32
68939;BMP180;59064;45.294;11.816;2023-04-30T12:01:35;101348.00;;;22.62
68939;BMP180;59064;45.294;11.816;2023-04-30T12:04:04;101346.40;;;22.70
68939;BMP180;59064;45.294;11.816;2023-04-30T12:06:31;101333.80;;;22.60
68939;BMP180;59064;45.294;11.816;2023-04-30T12:08:58;101341.60;;;22.30
68939;BMP180;59064;45.294;11.816;2023-04-30T12:11:32;101337.80;;;22.40
68939;BMP180;59064;45.294;11.816;2023-04-30T12:14:06;101342.20;;;22.50
68939;BMP180;59064;45.294;11.816;2023-04-30T12:16:42;101329.00;;;22.56
68939;BMP180;59064;45.294;11.816;2023-04-30T12:19:14;101331.80;;;22.36
68939;BMP180;59064;45.294;11.816;2023-04-30T12:21:42;101328.60;;;22.36
68939;BMP180;59064;45.294;11.816;2023-04-30T12:24:16;101335.20;;;22.50
68939;BMP180;59064;45.294;11.816;2023-04-30T12:26:42;101334.60;;;22.70
68939;BMP180;59064;45.294;11.816;2023-04-30T12:29:17;101329.00;;;22.70
68939;BMP180;59064;45.294;11.816;2023-04-30T12:31:44;101328.60;;;22.50
68939;BMP180;59064;45.294;11.816;2023-04-30T12:34:14;101329.60;;;22.30
68939;BMP180;59064;45.294;11.816;2023-04-30T12:36:40;101327.80;;;22.30
68939;BMP180;59064;45.294;11.816;2023-04-30T12:39:11;101326.60;;;22.40
68939;BMP180;59064;45.294;11.816;2023-04-30T12:41:43;101330.00;;;22.38
68939;BMP180;59064;45.294;11.816;2023-04-30T12:44:21;101325.80;;;22.32
68939;BMP180;59064;45.294;11.816;2023-04-30T12:46:49;101330.60;;;22.30
68939;BMP180;59064;45.294;11.816;2023-04-30T12:49:28;101327.00;;;22.22
68939;BMP180;59064;45.294;11.816;2023-04-30T12:52:12;101328.00;;;22.20
68939;BMP180;59064;45.294;11.816;2023-04-30T12:54:39;101326.20;;;22.20
68939;BMP180;59064;45.294;11.816;2023-04-30T12:57:10;101320.60;;;22.10
68939;BMP180;59064;45.294;11.816;2023-04-30T12:59:56;101322.80;;;22.10
68939;BMP180;59064;45.294;11.816;2023-04-30T13:02:28;101317.00;;;22.00
68939;BMP180;59064;45.294;11.816;2023-04-30T13:04:56;101317.40;;;22.00
68939;BMP180;59064;45.294;11.816;2023-04-30T13:07:22;101320.80;;;22.00
68939;BMP180;59064;45.294;11.816;2023-04-30T13:09:47;101308.60;;;22.10
68939;BMP180;59064;45.294;11.816;2023-04-30T13:12:13;101304.40;;;22.10
68939;BMP180;59064;45.294;11.816;2023-04-30T13:14:39;101303.80;;;22.20
68939;BMP180;59064;45.294;11.816;2023-04-30T13:17:05;101294.40;;;22.20
68939;BMP180;59064;45.294;11.816;2023-04-30T13:19:32;101294.40;;;22.30
68939;BMP180;59064;45.294;11.816;2023-04-30T13:21:58;101295.80;;;22.32
68939;BMP180;59064;45.294;11.816;2023-04-30T13:24:26;101288.80;;;22.32
68939;BMP180;59064;45.294;11.816;2023-04-30T13:26:52;101293.80;;;22.30
68939;BMP180;59064;45.294;11.816;2023-04-30T13:29:17;101290.40;;;22.40
68939;BMP180;59064;45.294;11.816;2023-04-30T13:31:45;101285.00;;;22.40
68939;BMP180;59064;45.294;11.816;2023-04-30T13:34:13;101281.20;;;22.46
68939;BMP180;59064;45.294;11.816;2023-04-30T13:36:39;101271.00;;;22.40
68939;BMP180;59064;45.294;11.816;2023-04-30T13:39:05;101277.40;;;22.30
68939;BMP180;59064;45.294;11.816;2023-04-30T13:41:31;101283.80;;;22.30
68939;BMP180;59064;45.294;11.816;2023-04-30T13:43:57;101276.80;;;22.30
68939;BMP180;59064;45.294;11.816;2023-04-30T13:46:25;101273.00;;;22.30
68939;BMP180;59064;45.294;11.816;2023-04-30T13:48:50;101271.00;;;22.30
68939;BMP180;59064;45.294;11.816;2023-04-30T13:51:18;101271.20;;;22.40
68939;BMP180;59064;45.294;11.816;2023-04-30T13:53:44;101270.80;;;22.50
68939;BMP180;59064;45.294;11.816;2023-04-30T13:56:09;101268.00;;;22.60
68939;BMP180;59064;45.294;11.816;2023-04-30T13:58:35;101268.40;;;22.66
68939;BMP180;59064;45.294;11.816;2023-04-30T14:01:00;101268.00;;;22.80
68939;BMP180;59064;45.294;11.816;2023-04-30T14:03:26;101270.20;;;23.02
68939;BMP180;59064;45.294;11.816;2023-04-30T14:05:53;101260.60;;;23.28
68939;BMP180;59064;45.294;11.816;2023-04-30T14:08:19;101259.20;;;24.20
68939;BMP180;59064;45.294;11.816;2023-04-30T14:10:45;101263.60;;;24.80